sensor_id;sensor_type;location;lat;lon;timestamp;P1;durP1;ratioP1;P2;durP2;ratioP2
11298;SDS011;5705;49.006;12.100;2022-08-03T00:02:15;2.77;;;2.37;;
11298;SDS011;5705;49.006;12.100;2022-08-03T00:04:43;2.93;;;2.60;;
11298;SDS011;5705;49.006;12.100;2022-08-03T00:07:11;3.60;;;2.40;;
11298;SDS011;5705;49.006;12.100;2022-08-03T00:09:40;4.97;;;2.60;;
11298;SDS011;5705;49.006;12.100;2022-08-03T00:12:08;2.60;;;2.40;;
11298;SDS011;5705;49.006;12.100;2022-08-03T00:14:36;2.93;;;2.03;;
11298;SDS011;5705;49.006;12.100;2022-08-03T00:17:03;2.33;;;2.17;;
11298;SDS011;5705;49.006;12.100;2022-08-03T00:19:31;2.40;;;2.20;;
11298;SDS011;5705;49.006;12.100;2022-08-03T00:21:59;2.40;;;1.77;;
11298;SDS011;5705;49.006;12.100;2022-08-03T00:24:26;2.77;;;2.27;;
11298;SDS011;5705;49.006;12.100;2022-08-03T00:26:57;2.27;;;2.10;;
11298;SDS011;5705;49.006;12.100;2022-08-03T00:29:25;4.10;;;2.50;;
11298;SDS011;5705;49.006;12.100;2022-08-03T00:31:53;2.63;;;2.43;;
11298;SDS011;5705;49.006;12.100;2022-08-03T00:34:25;2.97;;;2.67;;
11298;SDS011;5705;49.006;12.100;2022-08-03T00:37:13;2.47;;;2.17;;
11298;SDS011;5705;49.006;12.100;2022-08-03T00:39:41;2.43;;;2.20;;
11298;SDS011;5705;49.006;12.100;2022-08-03T00:42:12;2.57;;;1.90;;
11298;SDS011;5705;49.006;12.100;2022-08-03T00:44:40;1.87;;;1.77;;
11298;SDS011;5705;49.006;12.100;2022-08-03T00:47:09;2.37;;;2.20;;
11298;SDS011;5705;49.006;12.100;2022-08-03T00:49:38;2.30;;;2.10;;
11298;SDS011;5705;49.006;12.100;2022-08-03T00:52:07;2.40;;;2.03;;
11298;SDS011;5705;49.006;12.100;2022-08-03T00:54:35;3.53;;;2.03;;
11298;SDS011;5705;49.006;12.100;2022-08-03T00:57:03;2.43;;;2.17;;
11298;SDS011;5705;49.006;12.100;2022-08-03T00:59:33;2.27;;;1.90;;
11298;SDS011;5705;49.006;12.100;2022-08-03T01:02:03;3.03;;;2.47;;
11298;SDS011;5705;49.006;12.100;2022-08-03T01:04:31;2.43;;;2.23;;
11298;SDS011;5705;49.006;12.100;2022-08-03T01:07:01;2.90;;;2.13;;
11298;SDS011;5705;49.006;12.100;2022-08-03T01:09:37;2.30;;;2.10;;
11298;SDS011;5705;49.006;12.100;2022-08-03T01:12:10;3.77;;;2.10;;
11298;SDS011;5705;49.006;12.100;2022-08-03T01:14:43;2.60;;;2.40;;
11298;SDS011;5705;49.006;12.100;2022-08-03T01:17:13;3.50;;;2.17;;
11298;SDS011;5705;49.006;12.100;2022-08-03T01:19:45;2.77;;;2.27;;
11298;SDS011;5705;49.006;12.100;2022-08-03T01:22:30;2.90;;;2.20;;
11298;SDS011;5705;49.006;12.100;2022-08-03T01:25:19;2.47;;;2.27;;
11298;SDS011;5705;49.006;12.100;2022-08-03T01:27:57;2.13;;;1.93;;
11298;SDS011;5705;49.006;12.100;2022-08-03T01:30:31;3.60;;;2.50;;
11298;SDS011;5705;49.006;12.100;2022-08-03T01:33:01;2.43;;;2.23;;
11298;SDS011;5705;49.006;12.100;2022-08-03T01:35:33;2.30;;;2.10;;
11298;SDS011;5705;49.006;12.100;2022-08-03T01:38:04;2.30;;;2.10;;
11298;SDS011;5705;49.006;12.100;2022-08-03T01:40:33;2.83;;;2.63;;
11298;SDS011;5705;49.006;12.100;2022-08-03T01:43:03;2.00;;;1.90;;
11298;SDS011;5705;49.006;12.100;2022-08-03T01:45:32;3.60;;;2.00;;
11298;SDS011;5705;49.006;12.100;2022-08-03T01:48:01;5.30;;;2.00;;
11298;SDS011;5705;49.006;12.100;2022-08-03T01:50:29;2.40;;;2.30;;
11298;SDS011;5705;49.006;12.100;2022-08-03T01:52:59;4.20;;;2.20;;
11298;SDS011;5705;49.006;12.100;2022-08-03T01:55:28;1.97;;;1.87;;
11298;SDS011;5705;49.006;12.100;2022-08-03T01:57:58;2.23;;;2.07;;
11298;SDS011;5705;49.006;12.100;2022-08-03T02:00:32;2.53;;;2.33;;
11298;SDS011;5705;49.006;12.100;2022-08-03T02:03:03;2.27;;;2.10;;
11298;SDS011;5705;49.006;12.100;2022-08-03T02:05:32;2.70;;;2.50;;
11298;SDS011;5705;49.006;12.100;2022-08-03T02:08:00;2.20;;;2.07;;
11298;SDS011;5705;49.006;12.100;2022-08-03T02:10:30;3.23;;;2.27;;
11298;SDS011;5705;49.006;12.100;2022-08-03T02:13:01;2.00;;;1.90;;
11298;SDS011;5705;49.006;12.100;2022-08-03T02:15:30;2.27;;;2.07;;
11298;SDS011;5705;49.006;12.100;2022-08-03T02:18:00;2.70;;;2.20;;
11298;SDS011;5705;49.006;12.100;2022-08-03T02:20:29;2.17;;;2.07;;
11298;SDS011;5705;49.006;12.100;2022-08-03T02:23:01;2.80;;;2.13;;
11298;SDS011;5705;49.006;12.100;2022-08-03T02:25:29;2.60;;;2.50;;
11298;SDS011;5705;49.006;12.100;2022-08-03T02:27:57;2.67;;;2.47;;
11298;SDS011;5705;49.006;12.100;2022-08-03T02:30:35;2.93;;;2.73;;
11298;SDS011;5705;49.006;12.100;2022-08-03T02:33:04;2.50;;;2.40;;
11298;SDS011;5705;49.006;12.100;2022-08-03T02:35:35;2.40;;;2.30;;
11298;SDS011;5705;49.006;12.100;2022-08-03T02:38:04;3.10;;;2.90;;
11298;SDS011;5705;49.006;12.100;2022-08-03T02:40:34;3.10;;;2.33;;
11298;SDS011;5705;49.006;12.100;2022-08-03T02:43:04;2.50;;;2.30;;
11298;SDS011;5705;49.006;12.100;2022-08-03T02:45:38;2.23;;;2.00;;
11298;SDS011;5705;49.006;12.100;2022-08-03T02:48:10;2.93;;;2.73;;
11298;SDS011;5705;49.006;12.100;2022-08-03T02:50:39;2.63;;;2.47;;
11298;SDS011;5705;49.006;12.100;2022-08-03T02:53:08;2.50;;;2.30;;
11298;SDS011;5705;49.006;12.100;2022-08-03T02:55:36;4.10;;;1.93;;
11298;SDS011;5705;49.006;12.100;2022-08-03T02:58:10;3.17;;;2.50;;
11298;SDS011;5705;49.006;12.100;2022-08-03T03:00:41;2.50;;;2.30;;
11298;SDS011;5705;49.006;12.100;2022-08-03T03:03:10;2.80;;;2.60;;
11298;SDS011;5705;49.006;12.100;2022-08-03T03:05:39;2.83;;;2.40;;
11298;SDS011;5705;49.006;12.100;2022-08-03T03:08:22;3.20;;;2.70;;
11298;SDS011;5705;49.006;12.100;2022-08-03T03:10:54;3.13;;;2.83;;
11298;SDS011;5705;49.006;12.100;2022-08-03T03:13:23;3.30;;;3.10;;
11298;SDS011;5705;49.006;12.100;2022-08-03T03:15:53;2.50;;;2.37;;
11298;SDS011;5705;49.006;12.100;2022-08-03T03:18:22;2.57;;;2.37;;
11298;SDS011;5705;49.006;12.100;2022-08-03T03:20:50;2.70;;;2.50;;
11298;SDS011;5705;49.006;12.100;2022-08-03T03:23:19;2.97;;;2.77;;
11298;SDS011;5705;49.006;12.100;2022-08-03T03:25:48;3.43;;;3.17;;
11298;SDS011;5705;49.006;12.100;2022-08-03T03:28:16;2.70;;;2.57;;
11298;SDS011;5705;49.006;12.100;2022-08-03T03:30:44;2.77;;;2.57;;
11298;SDS011;5705;49.006;12.100;2022-08-03T03:33:19;2.77;;;2.57;;
11298;SDS011;5705;49.006;12.100;2022-08-03T03:35:47;3.47;;;3.27;;
11298;SDS011;5705;49.006;12.100;2022-08-03T03:38:16;2.73;;;2.53;;
11298;SDS011;5705;49.006;12.100;2022-08-03T03:40:45;3.10;;;2.67;;
11298;SDS011;5705;49.006;12.100;2022-08-03T03:43:12;2.50;;;2.30;;
11298;SDS011;5705;49.006;12.100;2022-08-03T03:45:40;3.20;;;3.00;;
11298;SDS011;5705;49.006;12.100;2022-08-03T03:48:08;2.80;;;2.60;;
11298;SDS011;5705;49.006;12.100;2022-08-03T03:50:38;2.90;;;2.47;;
11298;SDS011;5705;49.006;12.100;2022-08-03T03:53:07;2.83;;;2.57;;
11298;SDS011;5705;49.006;12.100;2022-08-03T03:55:36;2.90;;;2.70;;
11298;SDS011;5705;49.006;12.100;2022-08-03T03:58:24;8.00;;;7.30;;
11298;SDS011;5705;49.006;12.100;2022-08-03T04:00:52;4.97;;;4.53;;
11298;SDS011;5705;49.006;12.100;2022-08-03T04:03:20;5.00;;;4.60;;
11298;SDS011;5705;49.006;12.100;2022-08-03T04:05:49;3.33;;;3.03;;
11298;SDS011;5705;49.006;12.100;2022-08-03T04:08:34;2.93;;;2.73;;
11298;SDS011;5705;49.006;12.100;2022-08-03T04:11:20;3.20;;;2.90;;
11298;SDS011;5705;49.006;12.100;2022-08-03T04:13:57;3.13;;;2.93;;
11298;SDS011;5705;49.006;12.100;2022-08-03T04:16:31;2.37;;;2.17;;
11298;SDS011;5705;49.006;12.100;2022-08-03T04:19:01;2.80;;;2.60;;
11298;SDS011;5705;49.006;12.100;2022-08-03T04:21:31;2.60;;;2.40;;
11298;SDS011;5705;49.006;12.100;2022-08-03T04:24:00;3.30;;;3.00;;
11298;SDS011;5705;49.006;12.100;2022-08-03T04:26:30;4.37;;;3.70;;
11298;SDS011;5705;49.006;12.100;2022-08-03T04:29:01;4.33;;;3.53;;
11298;SDS011;5705;49.006;12.100;2022-08-03T04:31:30;4.70;;;4.30;;
11298;SDS011;5705;49.006;12.100;2022-08-03T04:33:57;10.23;;;9.30;;
11298;SDS011;5705;49.006;12.100;2022-08-03T04:36:26;3.83;;;3.50;;
11298;SDS011;5705;49.006;12.100;2022-08-03T04:39:02;8.43;;;2.90;;
11298;SDS011;5705;49.006;12.100;2022-08-03T04:41:31;3.80;;;3.50;;
11298;SDS011;5705;49.006;12.100;2022-08-03T04:44:22;3.27;;;2.90;;
11298;SDS011;5705;49.006;12.100;2022-08-03T04:46:54;4.30;;;4.00;;
11298;SDS011;5705;49.006;12.100;2022-08-03T04:49:22;3.57;;;3.27;;
11298;SDS011;5705;49.006;12.100;2022-08-03T04:51:50;3.17;;;2.87;;
11298;SDS011;5705;49.006;12.100;2022-08-03T04:54:20;3.57;;;3.27;;
11298;SDS011;5705;49.006;12.100;2022-08-03T04:56:48;2.83;;;2.50;;
11298;SDS011;5705;49.006;12.100;2022-08-03T04:59:15;4.13;;;3.83;;
11298;SDS011;5705;49.006;12.100;2022-08-03T05:01:44;3.67;;;3.37;;
11298;SDS011;5705;49.006;12.100;2022-08-03T05:04:11;4.30;;;3.53;;
11298;SDS011;5705;49.006;12.100;2022-08-03T05:06:40;4.33;;;4.00;;
11298;SDS011;5705;49.006;12.100;2022-08-03T05:09:19;3.93;;;3.20;;
11298;SDS011;5705;49.006;12.100;2022-08-03T05:12:08;3.40;;;3.13;;
11298;SDS011;5705;49.006;12.100;2022-08-03T05:14:36;2.70;;;2.50;;
11298;SDS011;5705;49.006;12.100;2022-08-03T05:17:04;3.00;;;2.80;;
11298;SDS011;5705;49.006;12.100;2022-08-03T05:19:32;3.27;;;2.97;;
11298;SDS011;5705;49.006;12.100;2022-08-03T05:22:00;3.70;;;2.50;;
11298;SDS011;5705;49.006;12.100;2022-08-03T05:24:29;2.43;;;2.23;;
11298;SDS011;5705;49.006;12.100;2022-08-03T05:26:57;3.90;;;2.77;;
11298;SDS011;5705;49.006;12.100;2022-08-03T05:29:25;4.57;;;2.67;;
11298;SDS011;5705;49.006;12.100;2022-08-03T05:31:53;3.90;;;3.00;;
11298;SDS011;5705;49.006;12.100;2022-08-03T05:34:20;3.20;;;2.90;;
11298;SDS011;5705;49.006;12.100;2022-08-03T05:36:48;3.37;;;3.10;;
11298;SDS011;5705;49.006;12.100;2022-08-03T05:39:16;3.10;;;2.90;;
11298;SDS011;5705;49.006;12.100;2022-08-03T05:41:45;3.00;;;2.80;;
11298;SDS011;5705;49.006;12.100;2022-08-03T05:44:13;3.13;;;2.93;;
11298;SDS011;5705;49.006;12.100;2022-08-03T05:46:41;4.17;;;2.70;;
11298;SDS011;5705;49.006;12.100;2022-08-03T05:49:08;4.07;;;2.80;;
11298;SDS011;5705;49.006;12.100;2022-08-03T05:51:36;3.90;;;3.60;;
11298;SDS011;5705;49.006;12.100;2022-08-03T05:54:04;3.10;;;2.90;;
11298;SDS011;5705;49.006;12.100;2022-08-03T05:56:32;2.53;;;2.33;;
11298;SDS011;5705;49.006;12.100;2022-08-03T05:59:01;3.03;;;2.70;;
11298;SDS011;5705;49.006;12.100;2022-08-03T06:01:49;2.87;;;2.67;;
11298;SDS011;5705;49.006;12.100;2022-08-03T06:04:18;2.40;;;2.30;;
11298;SDS011;5705;49.006;12.100;2022-08-03T06:06:45;4.03;;;3.00;;
11298;SDS011;5705;49.006;12.100;2022-08-03T06:09:15;3.23;;;2.47;;
11298;SDS011;5705;49.006;12.100;2022-08-03T06:11:43;2.47;;;2.37;;
11298;SDS011;5705;49.006;12.100;2022-08-03T06:14:12;3.57;;;2.77;;
11298;SDS011;5705;49.006;12.100;2022-08-03T06:16:40;2.60;;;2.50;;
11298;SDS011;5705;49.006;12.100;2022-08-03T06:19:08;2.47;;;2.37;;
11298;SDS011;5705;49.006;12.100;2022-08-03T06:21:36;3.87;;;2.67;;
11298;SDS011;5705;49.006;12.100;2022-08-03T06:24:05;1.90;;;1.80;;
11298;SDS011;5705;49.006;12.100;2022-08-03T06:26:33;3.50;;;3.20;;
11298;SDS011;5705;49.006;12.100;2022-08-03T06:29:01;2.93;;;2.73;;
11298;SDS011;5705;49.006;12.100;2022-08-03T06:31:30;2.77;;;2.57;;
11298;SDS011;5705;49.006;12.100;2022-08-03T06:34:00;4.43;;;2.60;;
11298;SDS011;5705;49.006;12.100;2022-08-03T06:36:48;2.70;;;2.30;;
11298;SDS011;5705;49.006;12.100;2022-08-03T06:39:17;2.57;;;2.20;;
11298;SDS011;5705;49.006;12.100;2022-08-03T06:41:48;2.63;;;2.43;;
11298;SDS011;5705;49.006;12.100;2022-08-03T06:44:16;2.90;;;2.27;;
11298;SDS011;5705;49.006;12.100;2022-08-03T06:46:45;1.90;;;1.80;;
11298;SDS011;5705;49.006;12.100;2022-08-03T06:49:13;2.67;;;2.37;;
11298;SDS011;5705;49.006;12.100;2022-08-03T06:51:41;8.90;;;2.40;;
11298;SDS011;5705;49.006;12.100;2022-08-03T06:54:29;2.17;;;2.07;;
11298;SDS011;5705;49.006;12.100;2022-08-03T06:56:58;2.40;;;2.00;;
11298;SDS011;5705;49.006;12.100;2022-08-03T06:59:26;1.77;;;1.67;;
11298;SDS011;5705;49.006;12.100;2022-08-03T07:02:15;3.87;;;1.93;;
11298;SDS011;5705;49.006;12.100;2022-08-03T07:04:45;3.60;;;1.93;;
11298;SDS011;5705;49.006;12.100;2022-08-03T07:07:13;3.83;;;1.90;;
11298;SDS011;5705;49.006;12.100;2022-08-03T07:09:42;2.00;;;1.87;;
11298;SDS011;5705;49.006;12.100;2022-08-03T07:12:23;2.27;;;1.90;;
11298;SDS011;5705;49.006;12.100;2022-08-03T07:14:53;2.20;;;2.00;;
11298;SDS011;5705;49.006;12.100;2022-08-03T07:17:27;1.67;;;1.57;;
11298;SDS011;5705;49.006;12.100;2022-08-03T07:19:56;2.53;;;1.90;;
11298;SDS011;5705;49.006;12.100;2022-08-03T07:22:24;1.90;;;1.80;;
11298;SDS011;5705;49.006;12.100;2022-08-03T07:24:51;1.73;;;1.63;;
11298;SDS011;5705;49.006;12.100;2022-08-03T07:27:19;1.13;;;1.13;;
11298;SDS011;5705;49.006;12.100;2022-08-03T07:29:47;2.13;;;1.10;;
11298;SDS011;5705;49.006;12.100;2022-08-03T07:32:15;1.60;;;1.50;;
11298;SDS011;5705;49.006;12.100;2022-08-03T07:34:44;2.10;;;1.60;;
11298;SDS011;5705;49.006;12.100;2022-08-03T07:37:12;1.93;;;1.63;;
11298;SDS011;5705;49.006;12.100;2022-08-03T07:39:40;1.43;;;1.43;;
11298;SDS011;5705;49.006;12.100;2022-08-03T07:42:07;1.03;;;1.03;;
11298;SDS011;5705;49.006;12.100;2022-08-03T07:44:35;2.17;;;1.47;;
11298;SDS011;5705;49.006;12.100;2022-08-03T07:47:04;1.20;;;1.20;;
11298;SDS011;5705;49.006;12.100;2022-08-03T07:49:37;1.47;;;1.37;;
11298;SDS011;5705;49.006;12.100;2022-08-03T07:52:07;1.20;;;1.20;;
11298;SDS011;5705;49.006;12.100;2022-08-03T07:54:53;2.77;;;1.57;;
11298;SDS011;5705;49.006;12.100;2022-08-03T07:57:21;2.70;;;1.70;;
11298;SDS011;5705;49.006;12.100;2022-08-03T07:59:49;1.50;;;1.40;;
11298;SDS011;5705;49.006;12.100;2022-08-03T08:02:27;1.40;;;1.40;;
11298;SDS011;5705;49.006;12.100;2022-08-03T08:04:55;1.40;;;1.30;;
11298;SDS011;5705;49.006;12.100;2022-08-03T08:07:31;3.13;;;1.03;;
11298;SDS011;5705;49.006;12.100;2022-08-03T08:09:59;1.33;;;1.23;;
11298;SDS011;5705;49.006;12.100;2022-08-03T08:12:27;2.78;;;1.38;;
11298;SDS011;5705;49.006;12.100;2022-08-03T08:14:54;1.00;;;1.00;;
11298;SDS011;5705;49.006;12.100;2022-08-03T08:17:22;1.63;;;1.40;;
11298;SDS011;5705;49.006;12.100;2022-08-03T08:19:50;1.42;;;1.40;;
11298;SDS011;5705;49.006;12.100;2022-08-03T08:22:18;1.38;;;1.27;;
11298;SDS011;5705;49.006;12.100;2022-08-03T08:24:57;1.42;;;1.33;;
11298;SDS011;5705;49.006;12.100;2022-08-03T08:27:26;2.47;;;1.23;;
11298;SDS011;5705;49.006;12.100;2022-08-03T08:30:15;2.92;;;1.15;;
11298;SDS011;5705;49.006;12.100;2022-08-03T08:32:44;1.60;;;1.50;;
11298;SDS011;5705;49.006;12.100;2022-08-03T08:35:13;1.50;;;1.33;;
11298;SDS011;5705;49.006;12.100;2022-08-03T08:37:40;1.40;;;1.30;;
11298;SDS011;5705;49.006;12.100;2022-08-03T08:40:17;1.08;;;1.08;;
11298;SDS011;5705;49.006;12.100;2022-08-03T08:42:47;3.22;;;1.20;;
11298;SDS011;5705;49.006;12.100;2022-08-03T08:45:24;2.78;;;1.35;;
11298;SDS011;5705;49.006;12.100;2022-08-03T08:47:52;2.33;;;1.13;;
11298;SDS011;5705;49.006;12.100;2022-08-03T08:50:27;1.60;;;1.50;;
11298;SDS011;5705;49.006;12.100;2022-08-03T08:52:55;1.20;;;1.13;;
11298;SDS011;5705;49.006;12.100;2022-08-03T08:55:28;2.35;;;1.17;;
11298;SDS011;5705;49.006;12.100;2022-08-03T08:58:17;1.60;;;1.50;;
11298;SDS011;5705;49.006;12.100;2022-08-03T09:00:46;1.10;;;1.10;;
11298;SDS011;5705;49.006;12.100;2022-08-03T09:03:14;0.85;;;0.82;;
11298;SDS011;5705;49.006;12.100;2022-08-03T09:05:55;3.95;;;1.10;;
11298;SDS011;5705;49.006;12.100;2022-08-03T09:08:25;1.10;;;1.10;;
11298;SDS011;5705;49.006;12.100;2022-08-03T09:10:54;1.35;;;0.82;;
11298;SDS011;5705;49.006;12.100;2022-08-03T09:13:22;2.05;;;1.10;;
11298;SDS011;5705;49.006;12.100;2022-08-03T09:16:03;1.75;;;1.17;;
11298;SDS011;5705;49.006;12.100;2022-08-03T09:18:35;1.10;;;1.00;;
11298;SDS011;5705;49.006;12.100;2022-08-03T09:21:16;1.10;;;1.10;;
11298;SDS011;5705;49.006;12.100;2022-08-03T09:24:01;3.13;;;1.00;;
11298;SDS011;5705;49.006;12.100;2022-08-03T09:26:48;3.20;;;1.00;;
11298;SDS011;5705;49.006;12.100;2022-08-03T09:29:19;1.38;;;1.27;;
11298;SDS011;5705;49.006;12.100;2022-08-03T09:31:47;1.13;;;1.02;;
11298;SDS011;5705;49.006;12.100;2022-08-03T09:34:15;1.48;;;1.38;;
11298;SDS011;5705;49.006;12.100;2022-08-03T09:36:44;1.40;;;1.30;;
11298;SDS011;5705;49.006;12.100;2022-08-03T09:39:13;1.70;;;1.30;;
11298;SDS011;5705;49.006;12.100;2022-08-03T09:41:44;1.50;;;1.50;;
11298;SDS011;5705;49.006;12.100;2022-08-03T09:44:12;1.52;;;1.42;;
11298;SDS011;5705;49.006;12.100;2022-08-03T09:46:51;1.40;;;1.30;;
11298;SDS011;5705;49.006;12.100;2022-08-03T09:49:20;1.48;;;0.98;;
11298;SDS011;5705;49.006;12.100;2022-08-03T09:51:48;2.45;;;0.95;;
11298;SDS011;5705;49.006;12.100;2022-08-03T09:54:36;1.40;;;1.13;;
11298;SDS011;5705;49.006;12.100;2022-08-03T09:57:06;0.90;;;0.90;;
11298;SDS011;5705;49.006;12.100;2022-08-03T09:59:33;1.75;;;0.73;;
11298;SDS011;5705;49.006;12.100;2022-08-03T10:02:06;1.80;;;0.70;;
11298;SDS011;5705;49.006;12.100;2022-08-03T10:04:48;0.75;;;0.75;;
11298;SDS011;5705;49.006;12.100;2022-08-03T10:07:18;1.00;;;1.00;;
11298;SDS011;5705;49.006;12.100;2022-08-03T10:09:53;0.73;;;0.65;;
11298;SDS011;5705;49.006;12.100;2022-08-03T10:12:23;0.88;;;0.88;;
11298;SDS011;5705;49.006;12.100;2022-08-03T10:14:52;1.52;;;0.80;;
11298;SDS011;5705;49.006;12.100;2022-08-03T10:17:21;1.35;;;0.70;;
11298;SDS011;5705;49.006;12.100;2022-08-03T10:19:49;1.38;;;0.85;;
11298;SDS011;5705;49.006;12.100;2022-08-03T10:22:18;1.20;;;1.10;;
11298;SDS011;5705;49.006;12.100;2022-08-03T10:24:49;0.68;;;0.68;;
11298;SDS011;5705;49.006;12.100;2022-08-03T10:27:20;2.28;;;1.30;;
11298;SDS011;5705;49.006;12.100;2022-08-03T10:29:51;2.13;;;1.08;;
11298;SDS011;5705;49.006;12.100;2022-08-03T10:32:21;2.35;;;1.50;;
11298;SDS011;5705;49.006;12.100;2022-08-03T10:34:53;1.50;;;1.40;;
11298;SDS011;5705;49.006;12.100;2022-08-03T10:37:29;2.25;;;1.58;;
11298;SDS011;5705;49.006;12.100;2022-08-03T10:39:59;1.90;;;1.73;;
11298;SDS011;5705;49.006;12.100;2022-08-03T10:42:27;1.20;;;1.13;;
11298;SDS011;5705;49.006;12.100;2022-08-03T10:45:02;1.25;;;1.15;;
11298;SDS011;5705;49.006;12.100;2022-08-03T10:47:32;1.45;;;1.27;;
11298;SDS011;5705;49.006;12.100;2022-08-03T10:50:01;2.05;;;0.90;;
11298;SDS011;5705;49.006;12.100;2022-08-03T10:52:29;1.20;;;0.82;;
11298;SDS011;5705;49.006;12.100;2022-08-03T10:58:13;1.20;;;1.02;;
11298;SDS011;5705;49.006;12.100;2022-08-03T11:00:57;1.80;;;0.88;;
11298;SDS011;5705;49.006;12.100;2022-08-03T11:03:25;0.82;;;0.82;;
11298;SDS011;5705;49.006;12.100;2022-08-03T11:05:53;1.63;;;0.82;;
11298;SDS011;5705;49.006;12.100;2022-08-03T11:08:42;0.90;;;0.90;;
11298;SDS011;5705;49.006;12.100;2022-08-03T11:11:23;1.65;;;0.93;;
11298;SDS011;5705;49.006;12.100;2022-08-03T11:13:57;1.00;;;0.77;;
11298;SDS011;5705;49.006;12.100;2022-08-03T11:16:27;0.63;;;0.63;;
11298;SDS011;5705;49.006;12.100;2022-08-03T11:18:56;2.22;;;1.15;;
11298;SDS011;5705;49.006;12.100;2022-08-03T11:30:52;2.08;;;0.88;;
11298;SDS011;5705;49.006;12.100;2022-08-03T11:33:31;0.75;;;0.75;;
11298;SDS011;5705;49.006;12.100;2022-08-03T11:36:00;0.60;;;0.60;;
11298;SDS011;5705;49.006;12.100;2022-08-03T11:38:28;3.30;;;0.85;;
11298;SDS011;5705;49.006;12.100;2022-08-03T11:40:56;0.82;;;0.82;;
11298;SDS011;5705;49.006;12.100;2022-08-03T11:43:42;0.95;;;0.63;;
11298;SDS011;5705;49.006;12.100;2022-08-03T11:46:11;1.38;;;0.57;;
11298;SDS011;5705;49.006;12.100;2022-08-03T11:49:01;1.90;;;0.80;;
11298;SDS011;5705;49.006;12.100;2022-08-03T11:51:35;2.05;;;0.47;;
11298;SDS011;5705;49.006;12.100;2022-08-03T11:54:05;1.00;;;0.80;;
11298;SDS011;5705;49.006;12.100;2022-08-03T11:56:42;0.65;;;0.65;;
11298;SDS011;5705;49.006;12.100;2022-08-03T11:59:10;1.95;;;0.57;;
11298;SDS011;5705;49.006;12.100;2022-08-03T12:01:46;0.70;;;0.70;;
11298;SDS011;5705;49.006;12.100;2022-08-03T12:04:15;0.70;;;0.70;;
11298;SDS011;5705;49.006;12.100;2022-08-03T12:06:56;0.63;;;0.50;;
11298;SDS011;5705;49.006;12.100;2022-08-03T12:09:25;2.00;;;0.60;;
11298;SDS011;5705;49.006;12.100;2022-08-03T12:11:53;0.90;;;0.90;;
11298;SDS011;5705;49.006;12.100;2022-08-03T12:14:25;1.25;;;0.80;;
11298;SDS011;5705;49.006;12.100;2022-08-03T12:17:14;0.98;;;0.90;;
11298;SDS011;5705;49.006;12.100;2022-08-03T12:19:44;1.40;;;0.95;;
11298;SDS011;5705;49.006;12.100;2022-08-03T12:22:11;0.98;;;0.93;;
11298;SDS011;5705;49.006;12.100;2022-08-03T12:24:41;2.67;;;0.90;;
11298;SDS011;5705;49.006;12.100;2022-08-03T12:27:11;1.00;;;1.00;;
11298;SDS011;5705;49.006;12.100;2022-08-03T12:29:39;2.60;;;1.33;;
11298;SDS011;5705;49.006;12.100;2022-08-03T12:32:07;1.27;;;1.15;;
11298;SDS011;5705;49.006;12.100;2022-08-03T12:34:45;1.35;;;0.88;;
11298;SDS011;5705;49.006;12.100;2022-08-03T12:37:13;0.70;;;0.70;;
11298;SDS011;5705;49.006;12.100;2022-08-03T12:39:48;2.55;;;0.90;;
11298;SDS011;5705;49.006;12.100;2022-08-03T12:42:32;1.10;;;0.80;;
11298;SDS011;5705;49.006;12.100;2022-08-03T12:47:50;0.88;;;0.68;;
11298;SDS011;5705;49.006;12.100;2022-08-03T12:50:24;1.27;;;1.20;;
11298;SDS011;5705;49.006;12.100;2022-08-03T12:52:57;0.73;;;0.60;;
11298;SDS011;5705;49.006;12.100;2022-08-03T12:55:26;0.70;;;0.70;;
11298;SDS011;5705;49.006;12.100;2022-08-03T12:58:28;0.70;;;0.70;;
11298;SDS011;5705;49.006;12.100;2022-08-03T13:00:58;6.07;;;1.20;;
11298;SDS011;5705;49.006;12.100;2022-08-03T13:03:37;1.33;;;1.23;;
11298;SDS011;5705;49.006;12.100;2022-08-03T13:06:12;1.75;;;0.90;;
11298;SDS011;5705;49.006;12.100;2022-08-03T13:08:41;0.70;;;0.70;;
11298;SDS011;5705;49.006;12.100;2022-08-03T13:11:17;0.70;;;0.50;;
11298;SDS011;5705;49.006;12.100;2022-08-03T13:13:45;3.17;;;1.00;;
11298;SDS011;5705;49.006;12.100;2022-08-03T13:16:13;2.47;;;0.98;;
11298;SDS011;5705;49.006;12.100;2022-08-03T13:18:44;1.20;;;0.80;;
11298;SDS011;5705;49.006;12.100;2022-08-03T13:21:15;0.80;;;0.80;;
11298;SDS011;5705;49.006;12.100;2022-08-03T13:23:43;1.13;;;0.90;;
11298;SDS011;5705;49.006;12.100;2022-08-03T13:26:11;1.00;;;1.00;;
11298;SDS011;5705;49.006;12.100;2022-08-03T13:28:39;1.00;;;1.00;;
11298;SDS011;5705;49.006;12.100;2022-08-03T13:31:07;0.82;;;0.80;;
11298;SDS011;5705;49.006;12.100;2022-08-03T13:33:34;0.80;;;0.80;;
11298;SDS011;5705;49.006;12.100;2022-08-03T13:36:02;0.68;;;0.63;;
11298;SDS011;5705;49.006;12.100;2022-08-03T13:38:31;0.80;;;0.80;;
11298;SDS011;5705;49.006;12.100;2022-08-03T13:40:59;2.00;;;0.73;;
11298;SDS011;5705;49.006;12.100;2022-08-03T13:43:30;0.90;;;0.90;;
11298;SDS011;5705;49.006;12.100;2022-08-03T13:45:58;1.30;;;0.90;;
11298;SDS011;5705;49.006;12.100;2022-08-03T13:48:25;1.63;;;0.80;;
11298;SDS011;5705;49.006;12.100;2022-08-03T13:51:03;0.95;;;0.88;;
11298;SDS011;5705;49.006;12.100;2022-08-03T13:53:48;0.70;;;0.70;;
11298;SDS011;5705;49.006;12.100;2022-08-03T13:56:17;2.63;;;1.30;;
11298;SDS011;5705;49.006;12.100;2022-08-03T13:58:45;2.17;;;0.80;;
11298;SDS011;5705;49.006;12.100;2022-08-03T14:01:12;0.70;;;0.70;;
11298;SDS011;5705;49.006;12.100;2022-08-03T14:03:40;1.52;;;0.90;;
11298;SDS011;5705;49.006;12.100;2022-08-03T14:06:08;1.15;;;1.05;;
11298;SDS011;5705;49.006;12.100;2022-08-03T14:08:36;1.08;;;1.08;;
11298;SDS011;5705;49.006;12.100;2022-08-03T14:11:05;0.90;;;0.90;;
11298;SDS011;5705;49.006;12.100;2022-08-03T14:13:33;0.82;;;0.60;;
11298;SDS011;5705;49.006;12.100;2022-08-03T14:16:00;0.60;;;0.55;;
11298;SDS011;5705;49.006;12.100;2022-08-03T14:18:28;0.68;;;0.68;;
11298;SDS011;5705;49.006;12.100;2022-08-03T14:20:59;0.60;;;0.60;;
11298;SDS011;5705;49.006;12.100;2022-08-03T14:23:32;1.80;;;0.90;;
11298;SDS011;5705;49.006;12.100;2022-08-03T14:26:05;1.15;;;1.15;;
11298;SDS011;5705;49.006;12.100;2022-08-03T14:28:36;2.85;;;1.38;;
11298;SDS011;5705;49.006;12.100;2022-08-03T14:31:05;0.80;;;0.80;;
11298;SDS011;5705;49.006;12.100;2022-08-03T14:33:54;1.23;;;0.63;;
11298;SDS011;5705;49.006;12.100;2022-08-03T14:36:22;1.20;;;0.70;;
11298;SDS011;5705;49.006;12.100;2022-08-03T14:38:51;0.57;;;0.57;;
11298;SDS011;5705;49.006;12.100;2022-08-03T14:41:24;0.77;;;0.77;;
11298;SDS011;5705;49.006;12.100;2022-08-03T14:43:52;0.75;;;0.47;;
11298;SDS011;5705;49.006;12.100;2022-08-03T14:46:27;0.50;;;0.50;;
11298;SDS011;5705;49.006;12.100;2022-08-03T14:48:55;0.57;;;0.57;;
11298;SDS011;5705;49.006;12.100;2022-08-03T14:51:43;0.65;;;0.65;;
11298;SDS011;5705;49.006;12.100;2022-08-03T14:54:19;0.68;;;0.68;;
11298;SDS011;5705;49.006;12.100;2022-08-03T14:56:48;0.98;;;0.80;;
11298;SDS011;5705;49.006;12.100;2022-08-03T14:59:16;0.60;;;0.60;;
11298;SDS011;5705;49.006;12.100;2022-08-03T15:01:44;0.80;;;0.80;;
11298;SDS011;5705;49.006;12.100;2022-08-03T15:04:29;1.70;;;1.60;;
11298;SDS011;5705;49.006;12.100;2022-08-03T15:06:56;0.98;;;0.98;;
11298;SDS011;5705;49.006;12.100;2022-08-03T15:09:24;1.40;;;1.02;;
11298;SDS011;5705;49.006;12.100;2022-08-03T15:11:53;1.20;;;0.85;;
11298;SDS011;5705;49.006;12.100;2022-08-03T15:14:21;1.08;;;0.75;;
11298;SDS011;5705;49.006;12.100;2022-08-03T15:16:58;1.17;;;1.02;;
11298;SDS011;5705;49.006;12.100;2022-08-03T15:19:26;1.10;;;1.10;;
11298;SDS011;5705;49.006;12.100;2022-08-03T15:22:14;2.83;;;0.73;;
11298;SDS011;5705;49.006;12.100;2022-08-03T15:24:49;0.73;;;0.57;;
11298;SDS011;5705;49.006;12.100;2022-08-03T15:27:19;1.65;;;0.60;;
11298;SDS011;5705;49.006;12.100;2022-08-03T15:29:47;0.50;;;0.50;;